sensor_id;sensor_type;location;lat;lon;timestamp;pressure;altitude;pressure_sealevel;temperature;humidity
38253;BME280;24785;52.372;20.672;2022-10-16T00:09:01;100765.88;;;13.18;100.00
38253;BME280;24785;52.372;20.672;2022-10-16T00:19:02;100773.38;;;13.16;100.00
38253;BME280;24785;52.372;20.672;2022-10-16T00:29:04;100779.09;;;13.10;100.00
38253;BME280;24785;52.372;20.672;2022-10-16T00:39:05;100779.19;;;13.00;100.00
38253;BME280;24785;52.372;20.672;2022-10-16T00:49:12;100779.25;;;12.89;100.00
38253;BME280;24785;52.372;20.672;2022-10-16T00:59:16;100784.44;;;12.81;100.00
38253;BME280;24785;52.372;20.672;2022-10-16T01:09:21;100792.47;;;12.86;100.00
38253;BME280;24785;52.372;20.672;2022-10-16T01:19:36;100804.50;;;12.93;100.00
38253;BME280;24785;52.372;20.672;2022-10-16T01:30:02;100815.28;;;12.93;100.00
38253;BME280;24785;52.372;20.672;2022-10-16T01:40:12;100809.94;;;12.88;100.00
38253;BME280;24785;52.372;20.672;2022-10-16T01:50:18;100799.16;;;12.88;100.00
38253;BME280;24785;52.372;20.672;2022-10-16T02:00:22;100808.38;;;12.77;100.00
38253;BME280;24785;52.372;20.672;2022-10-16T02:10:24;100805.47;;;12.69;100.00
38253;BME280;24785;52.372;20.672;2022-10-16T02:20:29;100803.88;;;12.63;100.00
38253;BME280;24785;52.372;20.672;2022-10-16T02:30:49;100810.41;;;12.51;100.00
38253;BME280;24785;52.372;20.672;2022-10-16T02:40:52;100801.84;;;12.44;100.00
38253;BME280;24785;52.372;20.672;2022-10-16T02:50:52;100808.81;;;12.45;100.00
38253;BME280;24785;52.372;20.672;2022-10-16T03:00:54;100814.16;;;12.50;100.00
38253;BME280;24785;52.372;20.672;2022-10-16T03:10:55;100833.22;;;12.54;100.00
38253;BME280;24785;52.372;20.672;2022-10-16T03:20:56;100843.47;;;12.52;100.00
38253;BME280;24785;52.372;20.672;2022-10-16T03:30:57;100839.75;;;12.43;100.00
38253;BME280;24785;52.372;20.672;2022-10-16T03:40:58;100851.34;;;12.33;100.00
38253;BME280;24785;52.372;20.672;2022-10-16T03:50:59;100857.00;;;12.21;100.00
38253;BME280;24785;52.372;20.672;2022-10-16T04:01:00;100846.03;;;12.03;100.00
38253;BME280;24785;52.372;20.672;2022-10-16T04:11:01;100853.34;;;11.46;100.00
38253;BME280;24785;52.372;20.672;2022-10-16T04:21:04;100861.06;;;10.97;100.00
38253;BME280;24785;52.372;20.672;2022-10-16T04:31:05;100860.94;;;10.56;100.00
38253;BME280;24785;52.372;20.672;2022-10-16T04:41:07;100875.19;;;10.20;100.00
38253;BME280;24785;52.372;20.672;2022-10-16T04:51:08;100873.19;;;9.95;100.00
38253;BME280;24785;52.372;20.672;2022-10-16T05:01:09;100880.53;;;9.77;100.00
38253;BME280;24785;52.372;20.672;2022-10-16T05:11:10;100883.19;;;9.77;100.00
38253;BME280;24785;52.372;20.672;2022-10-16T05:21:11;100873.56;;;9.76;100.00
38253;BME280;24785;52.372;20.672;2022-10-16T05:31:11;100872.78;;;9.81;100.00
38253;BME280;24785;52.372;20.672;2022-10-16T05:41:12;100871.50;;;9.89;100.00
38253;BME280;24785;52.372;20.672;2022-10-16T05:51:14;100876.41;;;9.97;100.00
38253;BME280;24785;52.372;20.672;2022-10-16T06:01:18;100880.19;;;10.06;100.00
38253;BME280;24785;52.372;20.672;2022-10-16T06:11:31;100890.91;;;10.48;100.00
38253;BME280;24785;52.372;20.672;2022-10-16T06:21:32;100879.28;;;11.00;100.00
38253;BME280;24785;52.372;20.672;2022-10-16T06:31:33;100893.06;;;12.00;100.00
38253;BME280;24785;52.372;20.672;2022-10-16T06:41:34;100909.16;;;13.39;100.00
38253;BME280;24785;52.372;20.672;2022-10-16T06:51:35;100974.31;;;14.09;100.00
38253;BME280;24785;52.372;20.672;2022-10-16T07:01:41;100976.63;;;13.92;100.00
38253;BME280;24785;52.372;20.672;2022-10-16T07:11:42;100987.31;;;14.02;100.00
38253;BME280;24785;52.372;20.672;2022-10-16T07:21:44;100964.16;;;14.01;100.00
38253;BME280;24785;52.372;20.672;2022-10-16T07:31:45;100990.53;;;14.04;100.00
38253;BME280;24785;52.372;20.672;2022-10-16T07:41:47;100983.56;;;14.61;100.00
38253;BME280;24785;52.372;20.672;2022-10-16T07:51:48;100995.91;;;14.91;100.00
38253;BME280;24785;52.372;20.672;2022-10-16T08:01:49;101018.69;;;15.04;100.00
38253;BME280;24785;52.372;20.672;2022-10-16T08:11:50;101034.94;;;15.41;100.00
38253;BME280;24785;52.372;20.672;2022-10-16T08:21:53;101025.91;;;15.32;100.00
38253;BME280;24785;52.372;20.672;2022-10-16T08:31:54;101031.56;;;15.73;100.00
38253;BME280;24785;52.372;20.672;2022-10-16T08:42:37;101028.59;;;16.08;100.00
38253;BME280;24785;52.372;20.672;2022-10-16T08:52:41;101040.19;;;16.59;100.00
38253;BME280;24785;52.372;20.672;2022-10-16T09:03:03;101034.78;;;17.28;98.39
38253;BME280;24785;52.372;20.672;2022-10-16T09:23:29;101027.53;;;18.32;85.35
38253;BME280;24785;52.372;20.672;2022-10-16T09:33:36;101035.97;;;18.30;84.79
38253;BME280;24785;52.372;20.672;2022-10-16T09:53:44;101028.50;;;18.36;83.04
38253;BME280;24785;52.372;20.672;2022-10-16T10:03:45;101027.03;;;18.30;84.82
38253;BME280;24785;52.372;20.672;2022-10-16T10:13:48;101012.25;;;18.44;83.88
38253;BME280;24785;52.372;20.672;2022-10-16T10:23:55;101017.59;;;18.49;82.74
38253;BME280;24785;52.372;20.672;2022-10-16T10:34:31;101013.69;;;18.64;80.72
38253;BME280;24785;52.372;20.672;2022-10-16T11:06:20;101003.31;;;19.32;77.53
38253;BME280;24785;52.372;20.672;2022-10-16T11:16:28;101015.78;;;19.15;77.81
38253;BME280;24785;52.372;20.672;2022-10-16T11:26:39;101019.94;;;19.22;79.67
38253;BME280;24785;52.372;20.672;2022-10-16T11:36:58;101012.41;;;19.18;78.68
38253;BME280;24785;52.372;20.672;2022-10-16T11:57:26;101019.19;;;19.47;78.69
38253;BME280;24785;52.372;20.672;2022-10-16T12:07:36;101030.25;;;19.68;76.57
38253;BME280;24785;52.372;20.672;2022-10-16T12:17:39;101028.66;;;19.93;75.99
38253;BME280;24785;52.372;20.672;2022-10-16T12:27:39;101029.44;;;20.10;74.50
38253;BME280;24785;52.372;20.672;2022-10-16T12:37:40;101036.50;;;19.94;74.31
38253;BME280;24785;52.372;20.672;2022-10-16T12:47:50;101033.94;;;19.72;73.29
38253;BME280;24785;52.372;20.672;2022-10-16T13:08:09;101060.88;;;19.34;75.95
38253;BME280;24785;52.372;20.672;2022-10-16T13:18:28;101063.59;;;19.34;76.61
38253;BME280;24785;52.372;20.672;2022-10-16T13:28:33;101065.31;;;19.12;77.69
38253;BME280;24785;52.372;20.672;2022-10-16T13:38:35;101073.16;;;18.83;80.30
38253;BME280;24785;52.372;20.672;2022-10-16T13:48:36;101056.50;;;18.45;83.02
38253;BME280;24785;52.372;20.672;2022-10-16T13:58:37;101060.78;;;18.15;85.73
38253;BME280;24785;52.372;20.672;2022-10-16T14:08:42;101077.38;;;18.13;88.87
38253;BME280;24785;52.372;20.672;2022-10-16T14:18:50;101080.81;;;18.05;90.35
38253;BME280;24785;52.372;20.672;2022-10-16T14:29:12;101073.47;;;18.06;92.66
38253;BME280;24785;52.372;20.672;2022-10-16T14:39:19;101085.81;;;18.12;95.02
38253;BME280;24785;52.372;20.672;2022-10-16T14:49:22;101089.97;;;17.96;97.24
38253;BME280;24785;52.372;20.672;2022-10-16T14:59:38;101091.44;;;17.79;98.69
38253;BME280;24785;52.372;20.672;2022-10-16T15:09:40;101096.88;;;17.52;100.00
38253;BME280;24785;52.372;20.672;2022-10-16T15:19:41;101096.38;;;17.22;100.00
38253;BME280;24785;52.372;20.672;2022-10-16T15:29:42;101114.91;;;16.88;100.00
38253;BME280;24785;52.372;20.672;2022-10-16T15:39:42;101122.50;;;16.72;100.00
38253;BME280;24785;52.372;20.672;2022-10-16T15:49:44;101127.47;;;16.65;100.00
38253;BME280;24785;52.372;20.672;2022-10-16T15:59:46;101142.69;;;16.61;100.00
38253;BME280;24785;52.372;20.672;2022-10-16T16:09:47;101150.53;;;16.62;100.00
38253;BME280;24785;52.372;20.672;2022-10-16T16:19:47;101157.97;;;16.52;100.00
38253;BME280;24785;52.372;20.672;2022-10-16T16:29:48;101182.44;;;16.28;100.00
38253;BME280;24785;52.372;20.672;2022-10-16T16:39:49;101178.16;;;15.84;100.00
38253;BME280;24785;52.372;20.672;2022-10-16T16:49:51;101189.94;;;15.46;100.00
38253;BME280;24785;52.372;20.672;2022-10-16T16:59:52;101196.41;;;15.21;100.00
38253;BME280;24785;52.372;20.672;2022-10-16T17:09:53;101210.56;;;15.07;100.00
38253;BME280;24785;52.372;20.672;2022-10-16T17:19:54;101205.09;;;14.84;100.00
38253;BME280;24785;52.372;20.672;2022-10-16T17:29:55;101229.50;;;14.68;100.00
38253;BME280;24785;52.372;20.672;2022-10-16T17:39:56;101236.59;;;14.54;100.00
38253;BME280;24785;52.372;20.672;2022-10-16T17:49:56;101247.56;;;14.24;100.00
38253;BME280;24785;52.372;20.672;2022-10-16T17:59:58;101225.47;;;14.16;100.00
38253;BME280;24785;52.372;20.672;2022-10-16T18:09:59;101241.38;;;14.13;100.00
38253;BME280;24785;52.372;20.672;2022-10-16T18:20:00;101231.25;;;13.90;100.00
38253;BME280;24785;52.372;20.672;2022-10-16T18:30:01;101261.75;;;13.70;100.00
38253;BME280;24785;52.372;20.672;2022-10-16T18:40:05;101272.84;;;13.48;100.00
38253;BME280;24785;52.372;20.672;2022-10-16T18:50:06;101271.53;;;13.30;100.00
38253;BME280;24785;52.372;20.672;2022-10-16T19:00:08;101262.59;;;13.14;100.00
38253;BME280;24785;52.372;20.672;2022-10-16T19:10:09;101276.34;;;13.08;100.00
38253;BME280;24785;52.372;20.672;2022-10-16T19:20:10;101280.38;;;13.00;100.00
38253;BME280;24785;52.372;20.672;2022-10-16T19:30:11;101286.84;;;12.99;100.00
38253;BME280;24785;52.372;20.672;2022-10-16T19:40:15;101297.31;;;13.01;100.00
38253;BME280;24785;52.372;20.672;2022-10-16T19:50:16;101288.44;;;13.00;100.00
38253;BME280;24785;52.372;20.672;2022-10-16T20:00:19;101304.06;;;13.03;100.00
38253;BME280;24785;52.372;20.672;2022-10-16T20:10:19;101315.59;;;12.88;100.00
38253;BME280;24785;52.372;20.672;2022-10-16T20:20:20;101324.69;;;12.72;100.00
38253;BME280;24785;52.372;20.672;2022-10-16T20:30:21;101344.31;;;12.63;100.00
38253;BME280;24785;52.372;20.672;2022-10-16T20:40:22;101346.16;;;12.47;100.00
38253;BME280;24785;52.372;20.672;2022-10-16T20:50:26;101348.28;;;12.40;100.00
38253;BME280;24785;52.372;20.672;2022-10-16T21:00:28;101340.91;;;12.20;100.00
38253;BME280;24785;52.372;20.672;2022-10-16T21:10:28;101364.41;;;11.92;100.00
38253;BME280;24785;52.372;20.672;2022-10-16T21:20:29;101360.44;;;12.00;100.00
38253;BME280;24785;52.372;20.672;2022-10-16T21:30:30;101363.97;;;12.06;100.00
38253;BME280;24785;52.372;20.672;2022-10-16T21:40:34;101368.69;;;12.36;100.00
38253;BME280;24785;52.372;20.672;2022-10-16T21:50:35;101377.91;;;12.55;100.00
38253;BME280;24785;52.372;20.672;2022-10-16T22:00:36;101385.97;;;12.60;100.00
38253;BME280;24785;52.372;20.672;2022-10-16T22:10:36;101393.44;;;12.38;100.00
38253;BME280;24785;52.372;20.672;2022-10-16T22:20:43;101402.91;;;12.03;100.00
38253;BME280;24785;52.372;20.672;2022-10-16T22:30:44;101426.97;;;11.61;100.00
38253;BME280;24785;52.372;20.672;2022-10-16T22:40:45;101444.47;;;11.10;100.00
38253;BME280;24785;52.372;20.672;2022-10-16T22:50:49;101453.56;;;11.09;100.00
38253;BME280;24785;52.372;20.672;2022-10-16T23:00:51;101444.66;;;10.81;100.00
38253;BME280;24785;52.372;20.672;2022-10-16T23:10:52;101450.84;;;10.60;100.00
38253;BME280;24785;52.372;20.672;2022-10-16T23:20:53;101450.41;;;10.29;100.00
38253;BME280;24785;52.372;20.672;2022-10-16T23:30:53;101477.81;;;10.36;100.00
38253;BME280;24785;52.372;20.672;2022-10-16T23:40:54;101499.19;;;10.31;100.00
38253;BME280;24785;52.372;20.672;2022-10-16T23:50:55;101502.69;;;10.49;100.00
